Gilbertville, Massachusetts
Current Conditions -  °F | °C
As of 8:54 PM on Friday 31 Oct 2014 (Local Time) from KORH Reporting Station
Overcast Overcast  
Wind Chill: 39°   Ceiling: 4000
Heat Index: 44°   Visibility: 10mi
Dew Point: 35°   Wind: 9mph
Humidity: 71%   Direction: 50°NE
Pressure: 29.96"   Gusts: NA
Location:  42.31°N, 72.21°W
Report Text: KORH 010054Z AUTO 05008KT 10SM OVC040 07/02 A2996 RMK AO2 SLP153 LAST AUGMENTED OBS T00670017
Loading
Personal Weather Stations






























Interactive Weather Map
Tropical Storm Tracking
New forecast layout! Learn more

10-Day Weather Forecast

Advertisements
Track Severe Weather on mobile